Loretto, Kentucky
Current Conditions -  °F | °C
As of 5:15 AM on Sunday 25 Jan 2015 (Local Time) from K6I2 Reporting Station
Clear Clear  
Wind Chill: 29°   Ceiling: Unl
Heat Index: 37°   Visibility: 10mi
Dew Point: 32°   Wind: 14mph
Humidity: 81%   Direction: 180°S
Pressure: 29.79"   Gusts: 18mph
Location:  37.64°N, 85.4°W
Report Text: K6I2 251015Z AUTO 18012G16KT 10SM CLR 03/00 A2979 RMK AO2
Loading
Personal Weather Stations






























Interactive Weather Map New forecast layout! Learn more

10-Day Weather Forecast

Advertisements
Track Severe Weather on mobile